sensor_id;sensor_type;location;lat;lon;timestamp;P1;durP1;ratioP1;P2;durP2;ratioP2
9960;SDS011;5021;51.506;11.320;2023-07-13T00:00:18;4.53;;;2.30;;
9960;SDS011;5021;51.506;11.320;2023-07-13T00:02:45;2.67;;;2.30;;
9960;SDS011;5021;51.506;11.320;2023-07-13T00:05:11;2.70;;;2.27;;
9960;SDS011;5021;51.506;11.320;2023-07-13T00:07:37;2.60;;;2.20;;
9960;SDS011;5021;51.506;11.320;2023-07-13T00:10:03;3.73;;;2.10;;
9960;SDS011;5021;51.506;11.320;2023-07-13T00:12:30;2.77;;;2.10;;
9960;SDS011;5021;51.506;11.320;2023-07-13T00:14:57;3.63;;;2.07;;
9960;SDS011;5021;51.506;11.320;2023-07-13T00:17:24;3.27;;;2.03;;
9960;SDS011;5021;51.506;11.320;2023-07-13T00:19:50;6.03;;;2.77;;
9960;SDS011;5021;51.506;11.320;2023-07-13T00:22:16;5.27;;;2.20;;
9960;SDS011;5021;51.506;11.320;2023-07-13T00:24:43;4.00;;;2.40;;
9960;SDS011;5021;51.506;11.320;2023-07-13T00:27:09;3.50;;;2.60;;
9960;SDS011;5021;51.506;11.320;2023-07-13T00:29:35;3.43;;;2.30;;
9960;SDS011;5021;51.506;11.320;2023-07-13T00:32:02;4.00;;;2.43;;
9960;SDS011;5021;51.506;11.320;2023-07-13T00:34:29;2.50;;;2.03;;
9960;SDS011;5021;51.506;11.320;2023-07-13T00:36:55;4.10;;;2.50;;
9960;SDS011;5021;51.506;11.320;2023-07-13T00:39:21;3.87;;;2.40;;
9960;SDS011;5021;51.506;11.320;2023-07-13T00:41:47;3.80;;;2.60;;
9960;SDS011;5021;51.506;11.320;2023-07-13T00:44:13;3.10;;;2.47;;
9960;SDS011;5021;51.506;11.320;2023-07-13T00:46:40;4.07;;;2.50;;
9960;SDS011;5021;51.506;11.320;2023-07-13T00:49:08;4.07;;;2.67;;
9960;SDS011;5021;51.506;11.320;2023-07-13T00:51:45;3.23;;;2.60;;
9960;SDS011;5021;51.506;11.320;2023-07-13T00:54:14;2.93;;;2.53;;
9960;SDS011;5021;51.506;11.320;2023-07-13T00:56:41;4.63;;;2.63;;
9960;SDS011;5021;51.506;11.320;2023-07-13T00:59:08;3.83;;;2.73;;
9960;SDS011;5021;51.506;11.320;2023-07-13T01:01:36;3.30;;;2.50;;
9960;SDS011;5021;51.506;11.320;2023-07-13T01:04:02;3.03;;;2.60;;
9960;SDS011;5021;51.506;11.320;2023-07-13T01:06:28;4.63;;;2.70;;
9960;SDS011;5021;51.506;11.320;2023-07-13T01:08:55;5.00;;;2.70;;
9960;SDS011;5021;51.506;11.320;2023-07-13T01:11:22;4.73;;;3.03;;
9960;SDS011;5021;51.506;11.320;2023-07-13T01:13:48;6.17;;;2.63;;
9960;SDS011;5021;51.506;11.320;2023-07-13T01:16:27;3.30;;;2.40;;
9960;SDS011;5021;51.506;11.320;2023-07-13T01:18:54;3.53;;;2.70;;
9960;SDS011;5021;51.506;11.320;2023-07-13T01:21:23;3.73;;;2.83;;
9960;SDS011;5021;51.506;11.320;2023-07-13T01:23:49;3.20;;;2.50;;
9960;SDS011;5021;51.506;11.320;2023-07-13T01:26:15;3.17;;;2.87;;
9960;SDS011;5021;51.506;11.320;2023-07-13T01:28:41;2.60;;;2.37;;
9960;SDS011;5021;51.506;11.320;2023-07-13T01:31:07;3.97;;;2.47;;
9960;SDS011;5021;51.506;11.320;2023-07-13T01:33:34;4.30;;;2.50;;
9960;SDS011;5021;51.506;11.320;2023-07-13T01:36:00;5.00;;;2.77;;
9960;SDS011;5021;51.506;11.320;2023-07-13T01:38:27;5.13;;;2.57;;
9960;SDS011;5021;51.506;11.320;2023-07-13T01:40:53;2.80;;;2.60;;
9960;SDS011;5021;51.506;11.320;2023-07-13T01:43:19;3.80;;;2.73;;
9960;SDS011;5021;51.506;11.320;2023-07-13T01:45:46;3.90;;;2.80;;
9960;SDS011;5021;51.506;11.320;2023-07-13T01:48:12;6.33;;;3.00;;
9960;SDS011;5021;51.506;11.320;2023-07-13T01:50:39;3.77;;;2.60;;
9960;SDS011;5021;51.506;11.320;2023-07-13T01:53:05;4.37;;;2.63;;
9960;SDS011;5021;51.506;11.320;2023-07-13T01:55:31;4.03;;;2.40;;
9960;SDS011;5021;51.506;11.320;2023-07-13T01:57:57;3.20;;;2.60;;
9960;SDS011;5021;51.506;11.320;2023-07-13T02:00:23;3.57;;;2.80;;
9960;SDS011;5021;51.506;11.320;2023-07-13T02:02:50;4.40;;;2.90;;
9960;SDS011;5021;51.506;11.320;2023-07-13T02:05:16;3.67;;;2.73;;
9960;SDS011;5021;51.506;11.320;2023-07-13T02:07:42;3.57;;;2.80;;
9960;SDS011;5021;51.506;11.320;2023-07-13T02:10:08;3.80;;;2.77;;
9960;SDS011;5021;51.506;11.320;2023-07-13T02:12:35;3.53;;;2.80;;
9960;SDS011;5021;51.506;11.320;2023-07-13T02:15:01;3.70;;;2.50;;
9960;SDS011;5021;51.506;11.320;2023-07-13T02:17:27;4.37;;;2.83;;
9960;SDS011;5021;51.506;11.320;2023-07-13T02:19:56;4.73;;;2.90;;
9960;SDS011;5021;51.506;11.320;2023-07-13T02:22:22;3.57;;;2.90;;
9960;SDS011;5021;51.506;11.320;2023-07-13T02:24:48;4.27;;;2.87;;
9960;SDS011;5021;51.506;11.320;2023-07-13T02:27:14;5.53;;;2.87;;
9960;SDS011;5021;51.506;11.320;2023-07-13T02:29:41;4.77;;;2.80;;
9960;SDS011;5021;51.506;11.320;2023-07-13T02:32:07;4.77;;;2.97;;
9960;SDS011;5021;51.506;11.320;2023-07-13T02:34:33;5.03;;;3.37;;
9960;SDS011;5021;51.506;11.320;2023-07-13T02:36:59;4.27;;;2.80;;
9960;SDS011;5021;51.506;11.320;2023-07-13T02:39:25;3.53;;;2.60;;
9960;SDS011;5021;51.506;11.320;2023-07-13T02:41:51;4.47;;;3.03;;
9960;SDS011;5021;51.506;11.320;2023-07-13T02:44:17;5.77;;;3.37;;
9960;SDS011;5021;51.506;11.320;2023-07-13T02:46:43;3.33;;;3.00;;
9960;SDS011;5021;51.506;11.320;2023-07-13T02:49:09;3.57;;;2.80;;
9960;SDS011;5021;51.506;11.320;2023-07-13T02:51:35;4.53;;;2.97;;
9960;SDS011;5021;51.506;11.320;2023-07-13T02:54:02;3.97;;;3.23;;
9960;SDS011;5021;51.506;11.320;2023-07-13T02:56:28;3.63;;;2.90;;
9960;SDS011;5021;51.506;11.320;2023-07-13T02:58:55;4.23;;;3.00;;
9960;SDS011;5021;51.506;11.320;2023-07-13T03:01:21;4.30;;;3.03;;
9960;SDS011;5021;51.506;11.320;2023-07-13T03:03:48;4.63;;;3.23;;
9960;SDS011;5021;51.506;11.320;2023-07-13T03:06:14;4.43;;;3.60;;
9960;SDS011;5021;51.506;11.320;2023-07-13T03:08:41;3.63;;;2.73;;
9960;SDS011;5021;51.506;11.320;2023-07-13T03:11:08;4.13;;;3.40;;
9960;SDS011;5021;51.506;11.320;2023-07-13T03:13:35;4.87;;;3.50;;
9960;SDS011;5021;51.506;11.320;2023-07-13T03:16:01;3.47;;;3.10;;
9960;SDS011;5021;51.506;11.320;2023-07-13T03:18:27;3.50;;;3.10;;
9960;SDS011;5021;51.506;11.320;2023-07-13T03:20:53;6.03;;;3.43;;
9960;SDS011;5021;51.506;11.320;2023-07-13T03:23:20;4.80;;;3.37;;
9960;SDS011;5021;51.506;11.320;2023-07-13T03:25:46;3.70;;;3.30;;
9960;SDS011;5021;51.506;11.320;2023-07-13T03:28:12;4.03;;;3.27;;
9960;SDS011;5021;51.506;11.320;2023-07-13T03:30:38;3.20;;;2.90;;
9960;SDS011;5021;51.506;11.320;2023-07-13T03:33:05;3.47;;;2.83;;
9960;SDS011;5021;51.506;11.320;2023-07-13T03:35:31;3.23;;;2.93;;
9960;SDS011;5021;51.506;11.320;2023-07-13T03:37:58;5.50;;;3.17;;
9960;SDS011;5021;51.506;11.320;2023-07-13T03:40:24;4.10;;;2.63;;
9960;SDS011;5021;51.506;11.320;2023-07-13T03:42:51;3.97;;;2.80;;
9960;SDS011;5021;51.506;11.320;2023-07-13T03:45:16;3.03;;;2.60;;
9960;SDS011;5021;51.506;11.320;2023-07-13T03:47:42;4.87;;;3.00;;
9960;SDS011;5021;51.506;11.320;2023-07-13T03:50:08;4.50;;;3.07;;
9960;SDS011;5021;51.506;11.320;2023-07-13T03:52:34;2.60;;;2.40;;
9960;SDS011;5021;51.506;11.320;2023-07-13T03:55:00;3.03;;;2.80;;
9960;SDS011;5021;51.506;11.320;2023-07-13T03:57:26;3.03;;;2.73;;
9960;SDS011;5021;51.506;11.320;2023-07-13T03:59:52;4.03;;;2.77;;
9960;SDS011;5021;51.506;11.320;2023-07-13T04:02:18;5.07;;;2.67;;
9960;SDS011;5021;51.506;11.320;2023-07-13T04:04:44;3.70;;;2.90;;
9960;SDS011;5021;51.506;11.320;2023-07-13T04:07:11;2.90;;;2.60;;
9960;SDS011;5021;51.506;11.320;2023-07-13T04:09:37;3.20;;;2.67;;
9960;SDS011;5021;51.506;11.320;2023-07-13T04:12:03;3.17;;;2.60;;
9960;SDS011;5021;51.506;11.320;2023-07-13T04:14:29;3.90;;;2.57;;
9960;SDS011;5021;51.506;11.320;2023-07-13T04:16:55;4.27;;;2.90;;
9960;SDS011;5021;51.506;11.320;2023-07-13T04:19:21;3.40;;;2.97;;
9960;SDS011;5021;51.506;11.320;2023-07-13T04:21:47;4.03;;;3.00;;
9960;SDS011;5021;51.506;11.320;2023-07-13T04:24:13;3.30;;;2.70;;
9960;SDS011;5021;51.506;11.320;2023-07-13T04:26:39;3.63;;;2.83;;
9960;SDS011;5021;51.506;11.320;2023-07-13T04:29:05;2.87;;;2.50;;
9960;SDS011;5021;51.506;11.320;2023-07-13T04:31:32;5.33;;;2.87;;
9960;SDS011;5021;51.506;11.320;2023-07-13T04:33:58;3.80;;;2.80;;
9960;SDS011;5021;51.506;11.320;2023-07-13T04:36:24;5.60;;;2.50;;
9960;SDS011;5021;51.506;11.320;2023-07-13T04:38:53;2.87;;;2.60;;
9960;SDS011;5021;51.506;11.320;2023-07-13T04:41:19;5.03;;;3.00;;
9960;SDS011;5021;51.506;11.320;2023-07-13T04:43:46;4.27;;;2.40;;
9960;SDS011;5021;51.506;11.320;2023-07-13T04:46:13;4.33;;;2.97;;
9960;SDS011;5021;51.506;11.320;2023-07-13T04:48:39;3.63;;;2.60;;
9960;SDS011;5021;51.506;11.320;2023-07-13T04:51:05;2.70;;;2.50;;
9960;SDS011;5021;51.506;11.320;2023-07-13T04:53:31;3.40;;;2.70;;
9960;SDS011;5021;51.506;11.320;2023-07-13T04:55:57;4.17;;;2.80;;
9960;SDS011;5021;51.506;11.320;2023-07-13T04:58:24;2.90;;;2.60;;
9960;SDS011;5021;51.506;11.320;2023-07-13T05:00:50;3.30;;;2.70;;
9960;SDS011;5021;51.506;11.320;2023-07-13T05:03:16;5.57;;;2.80;;
9960;SDS011;5021;51.506;11.320;2023-07-13T05:05:42;4.33;;;2.70;;
9960;SDS011;5021;51.506;11.320;2023-07-13T05:08:08;4.43;;;2.63;;
9960;SDS011;5021;51.506;11.320;2023-07-13T05:10:34;2.80;;;2.60;;
9960;SDS011;5021;51.506;11.320;2023-07-13T05:13:00;2.90;;;2.30;;
9960;SDS011;5021;51.506;11.320;2023-07-13T05:15:27;3.90;;;2.40;;
9960;SDS011;5021;51.506;11.320;2023-07-13T05:17:53;3.50;;;2.60;;
9960;SDS011;5021;51.506;11.320;2023-07-13T05:20:18;3.43;;;2.40;;
9960;SDS011;5021;51.506;11.320;2023-07-13T05:22:45;3.70;;;2.40;;
9960;SDS011;5021;51.506;11.320;2023-07-13T05:25:15;4.07;;;2.60;;
9960;SDS011;5021;51.506;11.320;2023-07-13T05:27:41;4.63;;;2.43;;
9960;SDS011;5021;51.506;11.320;2023-07-13T05:30:07;5.23;;;2.60;;
9960;SDS011;5021;51.506;11.320;2023-07-13T05:32:36;4.87;;;2.30;;
9960;SDS011;5021;51.506;11.320;2023-07-13T05:35:02;2.23;;;1.87;;
9960;SDS011;5021;51.506;11.320;2023-07-13T05:37:28;5.50;;;2.33;;
9960;SDS011;5021;51.506;11.320;2023-07-13T05:39:54;3.87;;;2.07;;
9960;SDS011;5021;51.506;11.320;2023-07-13T05:42:20;4.27;;;2.40;;
9960;SDS011;5021;51.506;11.320;2023-07-13T05:44:46;5.03;;;2.40;;
9960;SDS011;5021;51.506;11.320;2023-07-13T05:47:11;5.67;;;2.40;;
9960;SDS011;5021;51.506;11.320;2023-07-13T05:49:39;6.60;;;2.17;;
9960;SDS011;5021;51.506;11.320;2023-07-13T05:52:05;4.40;;;2.30;;
9960;SDS011;5021;51.506;11.320;2023-07-13T05:54:31;4.77;;;2.20;;
9960;SDS011;5021;51.506;11.320;2023-07-13T05:56:57;3.00;;;2.00;;
9960;SDS011;5021;51.506;11.320;2023-07-13T05:59:23;3.87;;;2.27;;
9960;SDS011;5021;51.506;11.320;2023-07-13T06:01:50;5.90;;;2.40;;
9960;SDS011;5021;51.506;11.320;2023-07-13T06:04:17;3.63;;;2.20;;
9960;SDS011;5021;51.506;11.320;2023-07-13T06:06:43;4.27;;;2.93;;
9960;SDS011;5021;51.506;11.320;2023-07-13T06:09:09;4.03;;;3.10;;
9960;SDS011;5021;51.506;11.320;2023-07-13T06:11:35;4.67;;;3.13;;
9960;SDS011;5021;51.506;11.320;2023-07-13T06:14:01;6.23;;;3.53;;
9960;SDS011;5021;51.506;11.320;2023-07-13T06:16:27;6.43;;;3.93;;
9960;SDS011;5021;51.506;11.320;2023-07-13T06:18:52;5.27;;;3.60;;
9960;SDS011;5021;51.506;11.320;2023-07-13T06:21:19;5.50;;;3.80;;
9960;SDS011;5021;51.506;11.320;2023-07-13T06:23:46;7.00;;;3.20;;
9960;SDS011;5021;51.506;11.320;2023-07-13T06:26:12;5.30;;;3.40;;
9960;SDS011;5021;51.506;11.320;2023-07-13T06:28:38;5.57;;;3.13;;
9960;SDS011;5021;51.506;11.320;2023-07-13T06:31:08;6.63;;;2.83;;
9960;SDS011;5021;51.506;11.320;2023-07-13T06:33:34;5.40;;;2.70;;
9960;SDS011;5021;51.506;11.320;2023-07-13T06:36:01;5.10;;;2.80;;
9960;SDS011;5021;51.506;11.320;2023-07-13T06:38:27;4.13;;;2.70;;
9960;SDS011;5021;51.506;11.320;2023-07-13T06:40:53;3.23;;;2.73;;
9960;SDS011;5021;51.506;11.320;2023-07-13T06:43:19;4.27;;;2.50;;
9960;SDS011;5021;51.506;11.320;2023-07-13T06:45:45;3.27;;;2.40;;
9960;SDS011;5021;51.506;11.320;2023-07-13T06:48:14;4.95;;;2.58;;
9960;SDS011;5021;51.506;11.320;2023-07-13T06:50:41;5.07;;;2.10;;
9960;SDS011;5021;51.506;11.320;2023-07-13T06:53:07;5.30;;;2.35;;
9960;SDS011;5021;51.506;11.320;2023-07-13T06:55:33;5.30;;;2.17;;
9960;SDS011;5021;51.506;11.320;2023-07-13T06:57:59;5.45;;;2.38;;
9960;SDS011;5021;51.506;11.320;2023-07-13T07:00:25;2.55;;;2.10;;
9960;SDS011;5021;51.506;11.320;2023-07-13T07:02:51;4.43;;;2.15;;
9960;SDS011;5021;51.506;11.320;2023-07-13T07:05:17;4.13;;;2.25;;
9960;SDS011;5021;51.506;11.320;2023-07-13T07:07:43;4.95;;;2.22;;
9960;SDS011;5021;51.506;11.320;2023-07-13T07:10:09;3.75;;;1.95;;
9960;SDS011;5021;51.506;11.320;2023-07-13T07:12:35;3.70;;;1.70;;
9960;SDS011;5021;51.506;11.320;2023-07-13T07:15:01;4.20;;;1.73;;
9960;SDS011;5021;51.506;11.320;2023-07-13T07:17:27;4.07;;;1.77;;
9960;SDS011;5021;51.506;11.320;2023-07-13T07:19:53;4.82;;;2.50;;
9960;SDS011;5021;51.506;11.320;2023-07-13T07:22:19;4.57;;;1.88;;
9960;SDS011;5021;51.506;11.320;2023-07-13T07:24:45;3.90;;;1.90;;
9960;SDS011;5021;51.506;11.320;2023-07-13T07:27:11;4.30;;;2.05;;
9960;SDS011;5021;51.506;11.320;2023-07-13T07:29:37;3.42;;;1.67;;
9960;SDS011;5021;51.506;11.320;2023-07-13T07:32:03;7.38;;;1.98;;
9960;SDS011;5021;51.506;11.320;2023-07-13T07:34:29;3.78;;;2.00;;
9960;SDS011;5021;51.506;11.320;2023-07-13T07:36:58;3.22;;;1.67;;
9960;SDS011;5021;51.506;11.320;2023-07-13T07:39:24;3.67;;;2.20;;
9960;SDS011;5021;51.506;11.320;2023-07-13T07:41:50;3.83;;;1.95;;
9960;SDS011;5021;51.506;11.320;2023-07-13T07:44:16;3.53;;;2.00;;
9960;SDS011;5021;51.506;11.320;2023-07-13T07:46:42;5.15;;;1.90;;
9960;SDS011;5021;51.506;11.320;2023-07-13T07:49:08;4.70;;;2.10;;
9960;SDS011;5021;51.506;11.320;2023-07-13T07:51:34;2.55;;;1.75;;
9960;SDS011;5021;51.506;11.320;2023-07-13T07:53:59;2.95;;;2.00;;
9960;SDS011;5021;51.506;11.320;2023-07-13T07:56:25;4.72;;;2.30;;
9960;SDS011;5021;51.506;11.320;2023-07-13T07:58:51;5.15;;;2.40;;
9960;SDS011;5021;51.506;11.320;2023-07-13T08:01:17;3.83;;;2.00;;
9960;SDS011;5021;51.506;11.320;2023-07-13T08:03:43;3.97;;;2.13;;
9960;SDS011;5021;51.506;11.320;2023-07-13T08:06:09;3.63;;;2.13;;
9960;SDS011;5021;51.506;11.320;2023-07-13T08:08:35;5.72;;;2.10;;
9960;SDS011;5021;51.506;11.320;2023-07-13T08:11:05;4.85;;;2.30;;
9960;SDS011;5021;51.506;11.320;2023-07-13T08:13:32;4.45;;;2.15;;
9960;SDS011;5021;51.506;11.320;2023-07-13T08:15:58;3.78;;;1.92;;
9960;SDS011;5021;51.506;11.320;2023-07-13T08:18:24;4.20;;;1.80;;
9960;SDS011;5021;51.506;11.320;2023-07-13T08:20:50;5.72;;;2.25;;
9960;SDS011;5021;51.506;11.320;2023-07-13T08:23:17;6.80;;;2.45;;
9960;SDS011;5021;51.506;11.320;2023-07-13T08:25:49;3.85;;;2.30;;
9960;SDS011;5021;51.506;11.320;2023-07-13T08:28:16;4.50;;;2.00;;
9960;SDS011;5021;51.506;11.320;2023-07-13T08:30:42;5.55;;;2.45;;
9960;SDS011;5021;51.506;11.320;2023-07-13T08:33:07;5.07;;;2.22;;
9960;SDS011;5021;51.506;11.320;2023-07-13T08:35:33;3.88;;;2.40;;
9960;SDS011;5021;51.506;11.320;2023-07-13T08:37:59;5.10;;;2.28;;
9960;SDS011;5021;51.506;11.320;2023-07-13T08:40:26;5.25;;;2.25;;
9960;SDS011;5021;51.506;11.320;2023-07-13T08:42:57;4.22;;;2.25;;
9960;SDS011;5021;51.506;11.320;2023-07-13T08:45:24;5.03;;;2.30;;
9960;SDS011;5021;51.506;11.320;2023-07-13T08:50:31;3.47;;;2.20;;
9960;SDS011;5021;51.506;11.320;2023-07-13T08:52:59;3.70;;;2.20;;
9960;SDS011;5021;51.506;11.320;2023-07-13T08:55:27;3.77;;;2.17;;
9960;SDS011;5021;51.506;11.320;2023-07-13T08:57:59;3.60;;;2.00;;
9960;SDS011;5021;51.506;11.320;2023-07-13T09:00:28;3.37;;;1.83;;
9960;SDS011;5021;51.506;11.320;2023-07-13T09:02:59;3.20;;;1.80;;
9960;SDS011;5021;51.506;11.320;2023-07-13T09:05:26;4.53;;;2.27;;
9960;SDS011;5021;51.506;11.320;2023-07-13T09:08:00;4.97;;;2.03;;
9960;SDS011;5021;51.506;11.320;2023-07-13T09:10:29;3.63;;;2.10;;
9960;SDS011;5021;51.506;11.320;2023-07-13T09:15:41;3.30;;;1.60;;
9960;SDS011;5021;51.506;11.320;2023-07-13T09:18:11;2.87;;;1.70;;
9960;SDS011;5021;51.506;11.320;2023-07-13T09:23:10;4.33;;;1.70;;
9960;SDS011;5021;51.506;11.320;2023-07-13T09:25:38;3.77;;;1.57;;
9960;SDS011;5021;51.506;11.320;2023-07-13T09:30:45;2.73;;;1.27;;
9960;SDS011;5021;51.506;11.320;2023-07-13T09:33:12;2.30;;;1.30;;
9960;SDS011;5021;51.506;11.320;2023-07-13T09:35:39;2.30;;;1.30;;
9960;SDS011;5021;51.506;11.320;2023-07-13T09:38:12;2.70;;;1.10;;
9960;SDS011;5021;51.506;11.320;2023-07-13T09:43:24;1.40;;;0.97;;
9960;SDS011;5021;51.506;11.320;2023-07-13T09:45:49;2.47;;;1.07;;
9960;SDS011;5021;51.506;11.320;2023-07-13T09:48:16;2.20;;;0.90;;
9960;SDS011;5021;51.506;11.320;2023-07-13T09:50:43;2.87;;;0.97;;
9960;SDS011;5021;51.506;11.320;2023-07-13T09:53:11;2.40;;;1.13;;
9960;SDS011;5021;51.506;11.320;2023-07-13T09:55:38;1.90;;;0.90;;
9960;SDS011;5021;51.506;11.320;2023-07-13T09:58:09;2.43;;;1.30;;
9960;SDS011;5021;51.506;11.320;2023-07-13T10:00:36;1.50;;;1.10;;
9960;SDS011;5021;51.506;11.320;2023-07-13T10:03:16;3.03;;;1.00;;
9960;SDS011;5021;51.506;11.320;2023-07-13T10:05:43;1.90;;;0.85;;
9960;SDS011;5021;51.506;11.320;2023-07-13T10:11:09;3.73;;;1.40;;
9960;SDS011;5021;51.506;11.320;2023-07-13T10:13:36;1.67;;;1.08;;
9960;SDS011;5021;51.506;11.320;2023-07-13T10:16:06;2.08;;;1.27;;
9960;SDS011;5021;51.506;11.320;2023-07-13T10:18:38;1.90;;;1.30;;
9960;SDS011;5021;51.506;11.320;2023-07-13T10:21:10;3.47;;;1.30;;
9960;SDS011;5021;51.506;11.320;2023-07-13T10:23:36;3.95;;;1.20;;
9960;SDS011;5021;51.506;11.320;2023-07-13T10:26:03;1.52;;;1.10;;
9960;SDS011;5021;51.506;11.320;2023-07-13T10:28:37;3.20;;;1.02;;
9960;SDS011;5021;51.506;11.320;2023-07-13T10:31:04;3.17;;;1.45;;
9960;SDS011;5021;51.506;11.320;2023-07-13T10:33:31;1.92;;;1.38;;
9960;SDS011;5021;51.506;11.320;2023-07-13T10:36:01;1.88;;;1.08;;
9960;SDS011;5021;51.506;11.320;2023-07-13T10:38:29;2.40;;;1.17;;
9960;SDS011;5021;51.506;11.320;2023-07-13T10:41:01;4.10;;;1.63;;
9960;SDS011;5021;51.506;11.320;2023-07-13T10:43:33;3.20;;;1.40;;
9960;SDS011;5021;51.506;11.320;2023-07-13T10:46:01;2.15;;;1.35;;
9960;SDS011;5021;51.506;11.320;2023-07-13T10:48:28;4.43;;;1.50;;
9960;SDS011;5021;51.506;11.320;2023-07-13T10:50:54;2.47;;;1.25;;
9960;SDS011;5021;51.506;11.320;2023-07-13T11:03:30;2.20;;;1.33;;
9960;SDS011;5021;51.506;11.320;2023-07-13T11:21:13;1.90;;;1.45;;
9960;SDS011;5021;51.506;11.320;2023-07-13T11:23:41;3.55;;;1.58;;
9960;SDS011;5021;51.506;11.320;2023-07-13T11:26:37;3.03;;;1.23;;
9960;SDS011;5021;51.506;11.320;2023-07-13T11:28:53;2.25;;;1.30;;
9960;SDS011;5021;51.506;11.320;2023-07-13T11:31:19;3.90;;;1.30;;
9960;SDS011;5021;51.506;11.320;2023-07-13T11:33:50;2.35;;;1.38;;
9960;SDS011;5021;51.506;11.320;2023-07-13T11:36:17;2.22;;;1.40;;
9960;SDS011;5021;51.506;11.320;2023-07-13T11:39:01;2.70;;;1.50;;
9960;SDS011;5021;51.506;11.320;2023-07-13T11:41:29;3.90;;;1.60;;
9960;SDS011;5021;51.506;11.320;2023-07-13T11:44:05;4.28;;;1.60;;
9960;SDS011;5021;51.506;11.320;2023-07-13T11:46:32;3.17;;;1.42;;
9960;SDS011;5021;51.506;11.320;2023-07-13T11:48:58;2.92;;;1.52;;
9960;SDS011;5021;51.506;11.320;2023-07-13T11:51:30;2.35;;;1.52;;
9960;SDS011;5021;51.506;11.320;2023-07-13T11:53:58;2.50;;;1.40;;
9960;SDS011;5021;51.506;11.320;2023-07-13T11:56:25;2.50;;;1.30;;
9960;SDS011;5021;51.506;11.320;2023-07-13T11:58:53;1.80;;;1.40;;
9960;SDS011;5021;51.506;11.320;2023-07-13T12:01:20;1.92;;;1.40;;
9960;SDS011;5021;51.506;11.320;2023-07-13T12:03:47;4.65;;;1.52;;
9960;SDS011;5021;51.506;11.320;2023-07-13T12:06:22;2.45;;;1.45;;
9960;SDS011;5021;51.506;11.320;2023-07-13T12:08:49;2.13;;;1.50;;
9960;SDS011;5021;51.506;11.320;2023-07-13T12:11:16;1.83;;;1.48;;
9960;SDS011;5021;51.506;11.320;2023-07-13T12:13:43;1.60;;;1.30;;
9960;SDS011;5021;51.506;11.320;2023-07-13T12:16:14;1.95;;;1.30;;
9960;SDS011;5021;51.506;11.320;2023-07-13T12:18:41;1.80;;;1.17;;
9960;SDS011;5021;51.506;11.320;2023-07-13T12:21:12;1.75;;;1.33;;
9960;SDS011;5021;51.506;11.320;2023-07-13T12:23:39;2.20;;;1.45;;
9960;SDS011;5021;51.506;11.320;2023-07-13T12:26:06;3.33;;;1.40;;
9960;SDS011;5021;51.506;11.320;2023-07-13T12:28:47;1.95;;;1.33;;
9960;SDS011;5021;51.506;11.320;2023-07-13T12:33:45;2.88;;;1.45;;
9960;SDS011;5021;51.506;11.320;2023-07-13T12:36:11;3.30;;;1.83;;
9960;SDS011;5021;51.506;11.320;2023-07-13T12:38:37;2.40;;;1.40;;
9960;SDS011;5021;51.506;11.320;2023-07-13T12:41:05;2.43;;;1.80;;
9960;SDS011;5021;51.506;11.320;2023-07-13T12:43:34;2.90;;;1.60;;
9960;SDS011;5021;51.506;11.320;2023-07-13T12:46:14;2.20;;;1.50;;
9960;SDS011;5021;51.506;11.320;2023-07-13T12:48:42;2.97;;;1.40;;
9960;SDS011;5021;51.506;11.320;2023-07-13T12:51:11;3.38;;;1.30;;
9960;SDS011;5021;51.506;11.320;2023-07-13T12:53:39;3.30;;;1.55;;
9960;SDS011;5021;51.506;11.320;2023-07-13T12:56:05;2.17;;;1.60;;
9960;SDS011;5021;51.506;11.320;2023-07-13T12:58:32;3.67;;;2.10;;
9960;SDS011;5021;51.506;11.320;2023-07-13T13:01:02;2.92;;;1.70;;
9960;SDS011;5021;51.506;11.320;2023-07-13T13:05:58;3.42;;;1.50;;
9960;SDS011;5021;51.506;11.320;2023-07-13T13:08:25;2.78;;;1.23;;
9960;SDS011;5021;51.506;11.320;2023-07-13T13:10:50;4.57;;;1.60;;
9960;SDS011;5021;51.506;11.320;2023-07-13T13:13:16;4.00;;;1.70;;
9960;SDS011;5021;51.506;11.320;2023-07-13T13:15:42;1.83;;;1.70;;
9960;SDS011;5021;51.506;11.320;2023-07-13T13:18:14;1.98;;;1.30;;
9960;SDS011;5021;51.506;11.320;2023-07-13T13:20:41;3.03;;;1.58;;
9960;SDS011;5021;51.506;11.320;2023-07-13T13:23:10;2.22;;;1.30;;
9960;SDS011;5021;51.506;11.320;2023-07-13T13:25:36;2.03;;;1.40;;
9960;SDS011;5021;51.506;11.320;2023-07-13T13:28:02;2.28;;;1.60;;
9960;SDS011;5021;51.506;11.320;2023-07-13T13:30:28;4.28;;;1.67;;
9960;SDS011;5021;51.506;11.320;2023-07-13T13:32:54;2.00;;;1.30;;
9960;SDS011;5021;51.506;11.320;2023-07-13T13:35:20;3.50;;;1.48;;
9960;SDS011;5021;51.506;11.320;2023-07-13T13:37:47;2.53;;;1.35;;
9960;SDS011;5021;51.506;11.320;2023-07-13T13:40:15;2.58;;;1.58;;
9960;SDS011;5021;51.506;11.320;2023-07-13T13:42:42;1.70;;;1.40;;
9960;SDS011;5021;51.506;11.320;2023-07-13T13:45:11;1.70;;;1.20;;
9960;SDS011;5021;51.506;11.320;2023-07-13T13:47:37;4.97;;;1.60;;
9960;SDS011;5021;51.506;11.320;2023-07-13T13:50:11;2.38;;;1.50;;
9960;SDS011;5021;51.506;11.320;2023-07-13T13:52:39;3.05;;;1.52;;
9960;SDS011;5021;51.506;11.320;2023-07-13T13:55:12;2.75;;;1.70;;
9960;SDS011;5021;51.506;11.320;2023-07-13T13:57:38;3.33;;;1.52;;
9960;SDS011;5021;51.506;11.320;2023-07-13T14:00:04;2.83;;;1.67;;
9960;SDS011;5021;51.506;11.320;2023-07-13T14:02:30;2.35;;;1.15;;
9960;SDS011;5021;51.506;11.320;2023-07-13T14:04:59;2.42;;;1.48;;
9960;SDS011;5021;51.506;11.320;2023-07-13T14:07:25;2.67;;;1.50;;
9960;SDS011;5021;51.506;11.320;2023-07-13T14:09:52;3.17;;;1.40;;
9960;SDS011;5021;51.506;11.320;2023-07-13T14:12:18;3.45;;;1.45;;
9960;SDS011;5021;51.506;11.320;2023-07-13T14:14:45;3.05;;;1.40;;
9960;SDS011;5021;51.506;11.320;2023-07-13T14:17:15;3.10;;;1.48;;
9960;SDS011;5021;51.506;11.320;2023-07-13T14:19:46;2.25;;;1.60;;
9960;SDS011;5021;51.506;11.320;2023-07-13T14:22:15;3.10;;;1.40;;
9960;SDS011;5021;51.506;11.320;2023-07-13T14:24:41;2.70;;;1.40;;
9960;SDS011;5021;51.506;11.320;2023-07-13T14:27:08;2.42;;;1.40;;
9960;SDS011;5021;51.506;11.320;2023-07-13T14:29:34;1.77;;;1.33;;
9960;SDS011;5021;51.506;11.320;2023-07-13T14:32:01;2.22;;;1.50;;
9960;SDS011;5021;51.506;11.320;2023-07-13T14:34:27;3.30;;;1.55;;
9960;SDS011;5021;51.506;11.320;2023-07-13T14:36:53;2.38;;;1.15;;
9960;SDS011;5021;51.506;11.320;2023-07-13T14:39:22;1.30;;;1.05;;
9960;SDS011;5021;51.506;11.320;2023-07-13T14:41:50;2.67;;;1.30;;
9960;SDS011;5021;51.506;11.320;2023-07-13T14:44:16;2.17;;;1.40;;
9960;SDS011;5021;51.506;11.320;2023-07-13T14:46:43;4.38;;;1.70;;
9960;SDS011;5021;51.506;11.320;2023-07-13T14:49:55;2.90;;;1.58;;
9960;SDS011;5021;51.506;11.320;2023-07-13T14:52:00;2.75;;;1.30;;
9960;SDS011;5021;51.506;11.320;2023-07-13T14:54:26;2.25;;;1.55;;
9960;SDS011;5021;51.506;11.320;2023-07-13T14:56:52;2.45;;;1.52;;
9960;SDS011;5021;51.506;11.320;2023-07-13T14:59:18;2.15;;;1.40;;
9960;SDS011;5021;51.506;11.320;2023-07-13T15:01:45;1.50;;;1.23;;
9960;SDS011;5021;51.506;11.320;2023-07-13T15:04:11;1.80;;;1.40;;
9960;SDS011;5021;51.506;11.320;2023-07-13T15:06:57;2.45;;;1.58;;
9960;SDS011;5021;51.506;11.320;2023-07-13T15:09:24;2.97;;;1.38;;
9960;SDS011;5021;51.506;11.320;2023-07-13T15:11:51;1.67;;;1.38;;
9960;SDS011;5021;51.506;11.320;2023-07-13T15:14:17;2.47;;;1.17;;
9960;SDS011;5021;51.506;11.320;2023-07-13T15:16:43;2.72;;;1.20;;
9960;SDS011;5021;51.506;11.320;2023-07-13T15:19:10;2.20;;;1.33;;
9960;SDS011;5021;51.506;11.320;2023-07-13T15:21:36;3.20;;;1.52;;
9960;SDS011;5021;51.506;11.320;2023-07-13T15:24:02;1.67;;;1.35;;
9960;SDS011;5021;51.506;11.320;2023-07-13T15:26:28;1.75;;;1.25;;
9960;SDS011;5021;51.506;11.320;2023-07-13T15:28:55;2.90;;;1.50;;
9960;SDS011;5021;51.506;11.320;2023-07-13T15:31:25;1.75;;;1.30;;
9960;SDS011;5021;51.506;11.320;2023-07-13T15:33:56;3.13;;;1.40;;
9960;SDS011;5021;51.506;11.320;2023-07-13T15:36:23;2.75;;;1.40;;
9960;SDS011;5021;51.506;11.320;2023-07-13T15:38:51;1.90;;;1.27;;
9960;SDS011;5021;51.506;11.320;2023-07-13T15:41:18;2.25;;;1.40;;
9960;SDS011;5021;51.506;11.320;2023-07-13T15:43:45;3.72;;;1.40;;
9960;SDS011;5021;51.506;11.320;2023-07-13T15:46:11;3.13;;;1.50;;